sensor_id;sensor_type;location;lat;lon;timestamp;P1;durP1;ratioP1;P2;durP2;ratioP2
15071;SDS011;7635;56.696;13.002;2023-09-19T00:02:02;7.30;;;4.78;;
15071;SDS011;7635;56.696;13.002;2023-09-19T00:04:30;5.53;;;4.55;;
15071;SDS011;7635;56.696;13.002;2023-09-19T00:06:57;5.75;;;5.18;;
15071;SDS011;7635;56.696;13.002;2023-09-19T00:09:24;6.95;;;5.13;;
15071;SDS011;7635;56.696;13.002;2023-09-19T00:11:52;5.68;;;4.43;;
15071;SDS011;7635;56.696;13.002;2023-09-19T00:14:19;6.10;;;4.53;;
15071;SDS011;7635;56.696;13.002;2023-09-19T00:16:49;8.27;;;5.40;;
15071;SDS011;7635;56.696;13.002;2023-09-19T00:19:17;6.18;;;4.63;;
15071;SDS011;7635;56.696;13.002;2023-09-19T00:21:44;7.25;;;5.07;;
15071;SDS011;7635;56.696;13.002;2023-09-19T00:24:12;5.40;;;4.43;;
15071;SDS011;7635;56.696;13.002;2023-09-19T00:26:39;7.38;;;4.68;;
15071;SDS011;7635;56.696;13.002;2023-09-19T00:29:05;7.22;;;4.90;;
15071;SDS011;7635;56.696;13.002;2023-09-19T00:31:33;5.60;;;4.47;;
15071;SDS011;7635;56.696;13.002;2023-09-19T00:34:02;6.53;;;4.28;;
15071;SDS011;7635;56.696;13.002;2023-09-19T00:36:36;7.45;;;5.07;;
15071;SDS011;7635;56.696;13.002;2023-09-19T00:39:04;6.18;;;4.43;;
15071;SDS011;7635;56.696;13.002;2023-09-19T00:41:31;7.10;;;4.50;;
15071;SDS011;7635;56.696;13.002;2023-09-19T00:44:00;6.30;;;4.38;;
15071;SDS011;7635;56.696;13.002;2023-09-19T00:46:29;5.22;;;4.63;;
15071;SDS011;7635;56.696;13.002;2023-09-19T00:48:57;8.90;;;5.07;;
15071;SDS011;7635;56.696;13.002;2023-09-19T00:51:24;6.22;;;5.30;;
15071;SDS011;7635;56.696;13.002;2023-09-19T00:53:54;6.18;;;5.07;;
15071;SDS011;7635;56.696;13.002;2023-09-19T00:56:21;6.30;;;4.40;;
15071;SDS011;7635;56.696;13.002;2023-09-19T00:58:48;6.45;;;4.82;;
15071;SDS011;7635;56.696;13.002;2023-09-19T01:01:15;5.65;;;4.20;;
15071;SDS011;7635;56.696;13.002;2023-09-19T01:03:42;7.90;;;4.70;;
15071;SDS011;7635;56.696;13.002;2023-09-19T01:06:10;5.20;;;4.45;;
15071;SDS011;7635;56.696;13.002;2023-09-19T01:08:37;5.25;;;4.43;;
15071;SDS011;7635;56.696;13.002;2023-09-19T01:11:09;4.15;;;3.65;;
15071;SDS011;7635;56.696;13.002;2023-09-19T01:13:44;5.93;;;4.55;;
15071;SDS011;7635;56.696;13.002;2023-09-19T01:16:19;6.93;;;4.35;;
15071;SDS011;7635;56.696;13.002;2023-09-19T01:18:55;7.22;;;4.32;;
15071;SDS011;7635;56.696;13.002;2023-09-19T01:21:35;6.57;;;4.80;;
15071;SDS011;7635;56.696;13.002;2023-09-19T01:24:22;9.82;;;5.30;;
15071;SDS011;7635;56.696;13.002;2023-09-19T01:27:25;5.80;;;4.10;;
15071;SDS011;7635;56.696;13.002;2023-09-19T01:30:09;6.20;;;4.38;;
15071;SDS011;7635;56.696;13.002;2023-09-19T01:32:36;6.03;;;4.15;;
15071;SDS011;7635;56.696;13.002;2023-09-19T01:35:04;6.20;;;4.57;;
15071;SDS011;7635;56.696;13.002;2023-09-19T01:37:31;8.40;;;5.25;;
15071;SDS011;7635;56.696;13.002;2023-09-19T01:39:59;4.63;;;3.55;;
15071;SDS011;7635;56.696;13.002;2023-09-19T01:42:43;9.20;;;5.72;;
15071;SDS011;7635;56.696;13.002;2023-09-19T01:45:16;7.60;;;4.22;;
15071;SDS011;7635;56.696;13.002;2023-09-19T01:47:49;5.50;;;3.80;;
15071;SDS011;7635;56.696;13.002;2023-09-19T01:50:21;8.32;;;4.05;;
15071;SDS011;7635;56.696;13.002;2023-09-19T01:52:57;6.35;;;3.78;;
15071;SDS011;7635;56.696;13.002;2023-09-19T01:55:29;4.25;;;3.22;;
15071;SDS011;7635;56.696;13.002;2023-09-19T01:58:04;6.07;;;4.25;;
15071;SDS011;7635;56.696;13.002;2023-09-19T02:00:36;6.15;;;3.25;;
15071;SDS011;7635;56.696;13.002;2023-09-19T02:03:07;4.97;;;3.45;;
15071;SDS011;7635;56.696;13.002;2023-09-19T02:05:35;3.10;;;2.80;;
15071;SDS011;7635;56.696;13.002;2023-09-19T02:08:02;5.18;;;3.85;;
15071;SDS011;7635;56.696;13.002;2023-09-19T02:10:29;4.25;;;2.97;;
15071;SDS011;7635;56.696;13.002;2023-09-19T02:12:56;7.68;;;3.65;;
15071;SDS011;7635;56.696;13.002;2023-09-19T02:15:22;3.65;;;2.47;;
15071;SDS011;7635;56.696;13.002;2023-09-19T02:17:50;2.95;;;2.60;;
15071;SDS011;7635;56.696;13.002;2023-09-19T02:20:18;5.78;;;4.05;;
15071;SDS011;7635;56.696;13.002;2023-09-19T02:22:46;3.10;;;2.70;;
15071;SDS011;7635;56.696;13.002;2023-09-19T02:25:14;4.93;;;3.03;;
15071;SDS011;7635;56.696;13.002;2023-09-19T02:27:42;3.88;;;2.85;;
15071;SDS011;7635;56.696;13.002;2023-09-19T02:30:09;2.47;;;2.28;;
15071;SDS011;7635;56.696;13.002;2023-09-19T02:32:36;3.65;;;2.83;;
15071;SDS011;7635;56.696;13.002;2023-09-19T02:35:06;5.25;;;2.80;;
15071;SDS011;7635;56.696;13.002;2023-09-19T02:37:35;3.38;;;2.55;;
15071;SDS011;7635;56.696;13.002;2023-09-19T02:40:02;3.95;;;2.42;;
15071;SDS011;7635;56.696;13.002;2023-09-19T02:42:43;3.22;;;2.45;;
15071;SDS011;7635;56.696;13.002;2023-09-19T02:45:14;3.65;;;2.85;;
15071;SDS011;7635;56.696;13.002;2023-09-19T02:47:42;3.22;;;2.60;;
15071;SDS011;7635;56.696;13.002;2023-09-19T02:50:10;3.40;;;2.35;;
15071;SDS011;7635;56.696;13.002;2023-09-19T02:52:38;2.53;;;2.33;;
15071;SDS011;7635;56.696;13.002;2023-09-19T02:55:08;2.20;;;1.98;;
15071;SDS011;7635;56.696;13.002;2023-09-19T02:57:35;4.30;;;2.13;;
15071;SDS011;7635;56.696;13.002;2023-09-19T03:00:06;4.80;;;2.25;;
15071;SDS011;7635;56.696;13.002;2023-09-19T03:02:35;7.10;;;2.13;;
15071;SDS011;7635;56.696;13.002;2023-09-19T03:05:02;3.42;;;2.35;;
15071;SDS011;7635;56.696;13.002;2023-09-19T03:07:31;3.08;;;2.50;;
15071;SDS011;7635;56.696;13.002;2023-09-19T03:09:58;2.42;;;2.10;;
15071;SDS011;7635;56.696;13.002;2023-09-19T03:12:25;3.40;;;1.80;;
15071;SDS011;7635;56.696;13.002;2023-09-19T03:14:52;2.17;;;1.92;;
15071;SDS011;7635;56.696;13.002;2023-09-19T03:17:19;2.95;;;2.13;;
15071;SDS011;7635;56.696;13.002;2023-09-19T03:19:46;3.03;;;2.30;;
15071;SDS011;7635;56.696;13.002;2023-09-19T03:22:13;2.38;;;2.15;;
15071;SDS011;7635;56.696;13.002;2023-09-19T03:24:41;5.00;;;2.13;;
15071;SDS011;7635;56.696;13.002;2023-09-19T03:27:08;1.70;;;1.60;;
15071;SDS011;7635;56.696;13.002;2023-09-19T03:29:35;2.90;;;1.90;;
15071;SDS011;7635;56.696;13.002;2023-09-19T03:32:02;2.55;;;1.83;;
15071;SDS011;7635;56.696;13.002;2023-09-19T03:34:30;2.40;;;2.00;;
15071;SDS011;7635;56.696;13.002;2023-09-19T03:36:57;1.95;;;1.83;;
15071;SDS011;7635;56.696;13.002;2023-09-19T03:39:23;2.15;;;1.95;;
15071;SDS011;7635;56.696;13.002;2023-09-19T03:41:51;1.90;;;1.70;;
15071;SDS011;7635;56.696;13.002;2023-09-19T03:44:18;2.53;;;1.77;;
15071;SDS011;7635;56.696;13.002;2023-09-19T03:46:45;2.97;;;2.00;;
15071;SDS011;7635;56.696;13.002;2023-09-19T03:49:11;2.35;;;1.85;;
15071;SDS011;7635;56.696;13.002;2023-09-19T03:51:38;1.70;;;1.50;;
15071;SDS011;7635;56.696;13.002;2023-09-19T03:54:06;2.25;;;1.50;;
15071;SDS011;7635;56.696;13.002;2023-09-19T03:56:33;2.05;;;1.85;;
15071;SDS011;7635;56.696;13.002;2023-09-19T03:59:01;5.40;;;1.98;;
15071;SDS011;7635;56.696;13.002;2023-09-19T04:01:28;1.47;;;1.37;;
15071;SDS011;7635;56.696;13.002;2023-09-19T04:03:57;2.15;;;1.70;;
15071;SDS011;7635;56.696;13.002;2023-09-19T04:06:24;1.77;;;1.60;;
15071;SDS011;7635;56.696;13.002;2023-09-19T04:08:52;1.88;;;1.70;;
15071;SDS011;7635;56.696;13.002;2023-09-19T04:11:19;2.75;;;1.95;;
15071;SDS011;7635;56.696;13.002;2023-09-19T04:13:46;3.63;;;1.63;;
15071;SDS011;7635;56.696;13.002;2023-09-19T04:16:15;1.88;;;1.60;;
15071;SDS011;7635;56.696;13.002;2023-09-19T04:18:42;3.33;;;1.90;;
15071;SDS011;7635;56.696;13.002;2023-09-19T04:21:09;2.22;;;1.35;;
15071;SDS011;7635;56.696;13.002;2023-09-19T04:23:36;1.85;;;1.38;;
15071;SDS011;7635;56.696;13.002;2023-09-19T04:26:03;2.17;;;1.60;;
15071;SDS011;7635;56.696;13.002;2023-09-19T04:28:30;1.83;;;1.70;;
15071;SDS011;7635;56.696;13.002;2023-09-19T04:30:59;2.78;;;1.60;;
15071;SDS011;7635;56.696;13.002;2023-09-19T04:33:27;2.33;;;1.90;;
15071;SDS011;7635;56.696;13.002;2023-09-19T04:35:53;1.30;;;1.20;;
15071;SDS011;7635;56.696;13.002;2023-09-19T04:38:21;1.88;;;1.60;;
15071;SDS011;7635;56.696;13.002;2023-09-19T04:40:48;2.70;;;1.38;;
15071;SDS011;7635;56.696;13.002;2023-09-19T04:43:15;2.45;;;1.77;;
15071;SDS011;7635;56.696;13.002;2023-09-19T04:45:42;3.30;;;1.60;;
15071;SDS011;7635;56.696;13.002;2023-09-19T04:48:08;1.58;;;1.48;;
15071;SDS011;7635;56.696;13.002;2023-09-19T04:50:37;1.80;;;1.60;;
15071;SDS011;7635;56.696;13.002;2023-09-19T04:53:04;1.38;;;1.25;;
15071;SDS011;7635;56.696;13.002;2023-09-19T04:55:32;1.45;;;1.35;;
15071;SDS011;7635;56.696;13.002;2023-09-19T04:57:58;1.27;;;1.23;;
15071;SDS011;7635;56.696;13.002;2023-09-19T05:00:25;2.15;;;1.27;;
15071;SDS011;7635;56.696;13.002;2023-09-19T05:02:55;2.40;;;1.50;;
15071;SDS011;7635;56.696;13.002;2023-09-19T05:05:23;1.33;;;1.05;;
15071;SDS011;7635;56.696;13.002;2023-09-19T05:07:52;2.05;;;1.50;;
15071;SDS011;7635;56.696;13.002;2023-09-19T05:10:19;2.70;;;1.13;;
15071;SDS011;7635;56.696;13.002;2023-09-19T05:12:46;5.47;;;2.10;;
15071;SDS011;7635;56.696;13.002;2023-09-19T05:15:16;3.00;;;1.65;;
15071;SDS011;7635;56.696;13.002;2023-09-19T05:17:47;4.03;;;1.85;;
15071;SDS011;7635;56.696;13.002;2023-09-19T05:20:14;1.73;;;0.95;;
15071;SDS011;7635;56.696;13.002;2023-09-19T05:22:49;3.90;;;1.70;;
15071;SDS011;7635;56.696;13.002;2023-09-19T05:25:23;3.67;;;1.38;;
15071;SDS011;7635;56.696;13.002;2023-09-19T05:27:52;1.58;;;1.48;;
15071;SDS011;7635;56.696;13.002;2023-09-19T05:30:19;3.67;;;1.27;;
15071;SDS011;7635;56.696;13.002;2023-09-19T05:32:47;4.80;;;1.90;;
15071;SDS011;7635;56.696;13.002;2023-09-19T05:35:13;1.95;;;1.02;;
15071;SDS011;7635;56.696;13.002;2023-09-19T05:37:40;2.65;;;1.30;;
15071;SDS011;7635;56.696;13.002;2023-09-19T05:40:09;2.95;;;1.40;;
15071;SDS011;7635;56.696;13.002;2023-09-19T05:42:37;4.65;;;1.60;;
15071;SDS011;7635;56.696;13.002;2023-09-19T05:45:06;2.72;;;1.40;;
15071;SDS011;7635;56.696;13.002;2023-09-19T05:47:36;2.35;;;1.42;;
15071;SDS011;7635;56.696;13.002;2023-09-19T05:50:03;1.92;;;1.42;;
15071;SDS011;7635;56.696;13.002;2023-09-19T05:52:32;3.83;;;1.95;;
15071;SDS011;7635;56.696;13.002;2023-09-19T05:54:59;1.42;;;1.23;;
15071;SDS011;7635;56.696;13.002;2023-09-19T05:57:27;5.25;;;1.98;;
15071;SDS011;7635;56.696;13.002;2023-09-19T05:59:55;2.60;;;1.83;;
15071;SDS011;7635;56.696;13.002;2023-09-19T06:02:22;2.85;;;1.50;;
15071;SDS011;7635;56.696;13.002;2023-09-19T06:04:49;2.20;;;1.10;;
15071;SDS011;7635;56.696;13.002;2023-09-19T06:07:18;7.30;;;2.05;;
15071;SDS011;7635;56.696;13.002;2023-09-19T06:09:44;5.88;;;1.80;;
15071;SDS011;7635;56.696;13.002;2023-09-19T06:12:11;2.30;;;1.30;;
15071;SDS011;7635;56.696;13.002;2023-09-19T06:14:43;2.20;;;1.30;;
15071;SDS011;7635;56.696;13.002;2023-09-19T06:17:10;4.45;;;1.77;;
15071;SDS011;7635;56.696;13.002;2023-09-19T06:19:36;2.88;;;2.20;;
15071;SDS011;7635;56.696;13.002;2023-09-19T06:22:03;2.78;;;1.38;;
15071;SDS011;7635;56.696;13.002;2023-09-19T06:24:30;3.42;;;1.48;;
15071;SDS011;7635;56.696;13.002;2023-09-19T06:26:57;7.15;;;1.70;;
15071;SDS011;7635;56.696;13.002;2023-09-19T06:29:26;4.50;;;1.25;;
15071;SDS011;7635;56.696;13.002;2023-09-19T06:31:54;2.22;;;1.45;;
15071;SDS011;7635;56.696;13.002;2023-09-19T06:34:21;1.67;;;1.20;;
15071;SDS011;7635;56.696;13.002;2023-09-19T06:36:48;3.97;;;1.77;;
15071;SDS011;7635;56.696;13.002;2023-09-19T06:39:15;0.80;;;0.80;;
15071;SDS011;7635;56.696;13.002;2023-09-19T06:41:41;1.08;;;0.98;;
15071;SDS011;7635;56.696;13.002;2023-09-19T06:44:08;1.58;;;1.48;;
15071;SDS011;7635;56.696;13.002;2023-09-19T06:46:36;6.28;;;1.50;;
15071;SDS011;7635;56.696;13.002;2023-09-19T06:49:07;1.15;;;1.05;;
15071;SDS011;7635;56.696;13.002;2023-09-19T06:51:35;0.90;;;0.90;;
15071;SDS011;7635;56.696;13.002;2023-09-19T06:54:02;6.05;;;1.88;;
15071;SDS011;7635;56.696;13.002;2023-09-19T06:56:30;1.60;;;1.30;;
15071;SDS011;7635;56.696;13.002;2023-09-19T06:58:57;2.08;;;1.13;;
15071;SDS011;7635;56.696;13.002;2023-09-19T07:01:24;1.15;;;1.10;;
15071;SDS011;7635;56.696;13.002;2023-09-19T07:03:51;3.75;;;1.85;;
15071;SDS011;7635;56.696;13.002;2023-09-19T07:06:19;1.17;;;1.00;;
15071;SDS011;7635;56.696;13.002;2023-09-19T07:08:46;2.60;;;1.45;;
15071;SDS011;7635;56.696;13.002;2023-09-19T07:11:15;0.80;;;0.80;;
15071;SDS011;7635;56.696;13.002;2023-09-19T07:13:42;1.30;;;1.10;;
15071;SDS011;7635;56.696;13.002;2023-09-19T07:16:09;2.30;;;1.50;;
15071;SDS011;7635;56.696;13.002;2023-09-19T07:18:52;5.13;;;1.77;;
15071;SDS011;7635;56.696;13.002;2023-09-19T07:21:20;5.68;;;1.15;;
15071;SDS011;7635;56.696;13.002;2023-09-19T07:23:46;1.20;;;1.10;;
15071;SDS011;7635;56.696;13.002;2023-09-19T07:26:14;2.22;;;1.20;;
15071;SDS011;7635;56.696;13.002;2023-09-19T07:28:41;1.60;;;1.45;;
15071;SDS011;7635;56.696;13.002;2023-09-19T07:31:08;1.52;;;1.35;;
15071;SDS011;7635;56.696;13.002;2023-09-19T07:33:35;2.35;;;1.40;;
15071;SDS011;7635;56.696;13.002;2023-09-19T07:36:02;2.05;;;1.10;;
15071;SDS011;7635;56.696;13.002;2023-09-19T07:38:30;2.08;;;0.80;;
15071;SDS011;7635;56.696;13.002;2023-09-19T07:40:59;1.60;;;1.50;;
15071;SDS011;7635;56.696;13.002;2023-09-19T07:43:27;2.47;;;1.45;;
15071;SDS011;7635;56.696;13.002;2023-09-19T07:45:54;1.63;;;1.33;;
15071;SDS011;7635;56.696;13.002;2023-09-19T07:48:20;0.93;;;0.93;;
15071;SDS011;7635;56.696;13.002;2023-09-19T07:50:49;2.08;;;1.25;;
15071;SDS011;7635;56.696;13.002;2023-09-19T07:53:16;4.85;;;1.70;;
15071;SDS011;7635;56.696;13.002;2023-09-19T07:55:44;4.40;;;1.60;;
15071;SDS011;7635;56.696;13.002;2023-09-19T07:58:13;6.70;;;1.75;;
15071;SDS011;7635;56.696;13.002;2023-09-19T08:00:40;3.13;;;1.20;;
15071;SDS011;7635;56.696;13.002;2023-09-19T08:03:07;1.30;;;1.08;;
15071;SDS011;7635;56.696;13.002;2023-09-19T08:05:39;2.28;;;1.50;;
15071;SDS011;7635;56.696;13.002;2023-09-19T08:08:08;4.40;;;1.52;;
15071;SDS011;7635;56.696;13.002;2023-09-19T08:10:35;7.13;;;2.33;;
15071;SDS011;7635;56.696;13.002;2023-09-19T08:13:06;3.63;;;1.05;;
15071;SDS011;7635;56.696;13.002;2023-09-19T08:15:36;5.55;;;1.85;;
15071;SDS011;7635;56.696;13.002;2023-09-19T08:18:09;1.30;;;1.20;;
15071;SDS011;7635;56.696;13.002;2023-09-19T08:20:37;2.13;;;1.27;;
15071;SDS011;7635;56.696;13.002;2023-09-19T08:23:04;2.08;;;1.23;;
15071;SDS011;7635;56.696;13.002;2023-09-19T08:25:33;3.05;;;1.30;;
15071;SDS011;7635;56.696;13.002;2023-09-19T08:28:00;1.85;;;1.38;;
15071;SDS011;7635;56.696;13.002;2023-09-19T08:30:29;3.17;;;1.88;;
15071;SDS011;7635;56.696;13.002;2023-09-19T08:32:57;1.77;;;1.40;;
15071;SDS011;7635;56.696;13.002;2023-09-19T08:35:24;4.28;;;1.42;;
15071;SDS011;7635;56.696;13.002;2023-09-19T08:37:51;1.65;;;1.20;;
15071;SDS011;7635;56.696;13.002;2023-09-19T08:40:18;2.83;;;1.60;;
15071;SDS011;7635;56.696;13.002;2023-09-19T08:42:48;5.55;;;1.85;;
15071;SDS011;7635;56.696;13.002;2023-09-19T08:45:16;1.48;;;1.25;;
15071;SDS011;7635;56.696;13.002;2023-09-19T08:47:46;6.22;;;1.55;;
15071;SDS011;7635;56.696;13.002;2023-09-19T08:50:19;3.63;;;1.60;;
15071;SDS011;7635;56.696;13.002;2023-09-19T08:52:53;3.10;;;1.73;;
15071;SDS011;7635;56.696;13.002;2023-09-19T08:55:23;1.65;;;1.23;;
15071;SDS011;7635;56.696;13.002;2023-09-19T08:57:56;3.28;;;1.40;;
15071;SDS011;7635;56.696;13.002;2023-09-19T09:00:27;3.60;;;1.30;;
15071;SDS011;7635;56.696;13.002;2023-09-19T09:02:56;2.88;;;1.38;;
15071;SDS011;7635;56.696;13.002;2023-09-19T09:05:25;4.20;;;1.58;;
15071;SDS011;7635;56.696;13.002;2023-09-19T09:07:53;1.05;;;1.00;;
15071;SDS011;7635;56.696;13.002;2023-09-19T09:10:21;0.85;;;0.85;;
15071;SDS011;7635;56.696;13.002;2023-09-19T09:12:48;3.13;;;1.40;;
15071;SDS011;7635;56.696;13.002;2023-09-19T09:15:17;0.93;;;0.88;;
15071;SDS011;7635;56.696;13.002;2023-09-19T09:17:48;3.47;;;1.70;;
15071;SDS011;7635;56.696;13.002;2023-09-19T09:20:17;1.38;;;1.08;;
15071;SDS011;7635;56.696;13.002;2023-09-19T09:22:53;4.90;;;1.70;;
15071;SDS011;7635;56.696;13.002;2023-09-19T09:25:21;2.75;;;1.27;;
15071;SDS011;7635;56.696;13.002;2023-09-19T09:27:58;2.78;;;1.35;;
15071;SDS011;7635;56.696;13.002;2023-09-19T09:30:33;3.13;;;1.40;;
15071;SDS011;7635;56.696;13.002;2023-09-19T09:33:09;2.15;;;1.20;;
15071;SDS011;7635;56.696;13.002;2023-09-19T09:35:38;1.10;;;0.80;;
15071;SDS011;7635;56.696;13.002;2023-09-19T09:38:17;1.65;;;1.30;;
15071;SDS011;7635;56.696;13.002;2023-09-19T09:40:48;2.13;;;1.40;;
15071;SDS011;7635;56.696;13.002;2023-09-19T09:43:28;2.17;;;1.20;;
15071;SDS011;7635;56.696;13.002;2023-09-19T09:46:13;2.95;;;1.17;;
15071;SDS011;7635;56.696;13.002;2023-09-19T09:48:58;4.72;;;1.00;;
15071;SDS011;7635;56.696;13.002;2023-09-19T09:51:58;0.70;;;0.70;;
15071;SDS011;7635;56.696;13.002;2023-09-19T09:54:30;5.45;;;1.17;;
15071;SDS011;7635;56.696;13.002;2023-09-19T09:57:02;1.70;;;1.13;;
15071;SDS011;7635;56.696;13.002;2023-09-19T10:02:44;0.43;;;0.43;;
15071;SDS011;7635;56.696;13.002;2023-09-19T10:05:12;2.28;;;1.23;;
15071;SDS011;7635;56.696;13.002;2023-09-19T10:07:47;1.20;;;1.10;;
15071;SDS011;7635;56.696;13.002;2023-09-19T10:10:28;1.23;;;1.02;;
15071;SDS011;7635;56.696;13.002;2023-09-19T10:13:03;2.00;;;1.00;;
15071;SDS011;7635;56.696;13.002;2023-09-19T10:15:33;1.90;;;0.98;;
15071;SDS011;7635;56.696;13.002;2023-09-19T10:18:01;3.25;;;1.00;;
15071;SDS011;7635;56.696;13.002;2023-09-19T10:20:33;0.60;;;0.60;;
15071;SDS011;7635;56.696;13.002;2023-09-19T10:23:07;2.20;;;1.17;;
15071;SDS011;7635;56.696;13.002;2023-09-19T10:25:36;1.33;;;1.00;;
15071;SDS011;7635;56.696;13.002;2023-09-19T10:28:03;1.55;;;1.20;;
15071;SDS011;7635;56.696;13.002;2023-09-19T10:30:36;2.63;;;1.40;;
15071;SDS011;7635;56.696;13.002;2023-09-19T10:33:08;0.80;;;0.80;;
15071;SDS011;7635;56.696;13.002;2023-09-19T10:35:37;2.17;;;1.20;;
15071;SDS011;7635;56.696;13.002;2023-09-19T10:38:09;1.08;;;1.02;;
15071;SDS011;7635;56.696;13.002;2023-09-19T10:40:37;1.52;;;0.90;;
15071;SDS011;7635;56.696;13.002;2023-09-19T10:43:08;3.83;;;1.00;;
15071;SDS011;7635;56.696;13.002;2023-09-19T10:45:40;1.70;;;1.30;;
15071;SDS011;7635;56.696;13.002;2023-09-19T10:48:09;2.70;;;0.98;;
15071;SDS011;7635;56.696;13.002;2023-09-19T10:50:41;0.38;;;0.38;;
15071;SDS011;7635;56.696;13.002;2023-09-19T10:53:12;0.90;;;0.90;;
15071;SDS011;7635;56.696;13.002;2023-09-19T10:55:40;0.75;;;0.75;;
15071;SDS011;7635;56.696;13.002;2023-09-19T10:58:13;0.82;;;0.68;;
15071;SDS011;7635;56.696;13.002;2023-09-19T11:00:53;6.88;;;1.80;;
15071;SDS011;7635;56.696;13.002;2023-09-19T11:03:21;1.88;;;0.85;;
15071;SDS011;7635;56.696;13.002;2023-09-19T11:06:02;4.05;;;1.00;;
15071;SDS011;7635;56.696;13.002;2023-09-19T11:08:54;0.85;;;0.85;;
15071;SDS011;7635;56.696;13.002;2023-09-19T11:11:41;0.85;;;0.85;;
15071;SDS011;7635;56.696;13.002;2023-09-19T11:14:14;1.27;;;1.00;;
15071;SDS011;7635;56.696;13.002;2023-09-19T11:20:24;3.67;;;1.67;;
15071;SDS011;7635;56.696;13.002;2023-09-19T11:25:52;2.78;;;0.90;;
15071;SDS011;7635;56.696;13.002;2023-09-19T11:28:30;2.05;;;1.30;;
15071;SDS011;7635;56.696;13.002;2023-09-19T11:30:57;4.05;;;1.00;;
15071;SDS011;7635;56.696;13.002;2023-09-19T11:33:24;1.20;;;1.10;;
15071;SDS011;7635;56.696;13.002;2023-09-19T11:35:59;2.20;;;0.93;;
15071;SDS011;7635;56.696;13.002;2023-09-19T11:41:37;2.30;;;1.10;;
15071;SDS011;7635;56.696;13.002;2023-09-19T11:47:01;4.20;;;1.85;;
15071;SDS011;7635;56.696;13.002;2023-09-19T11:49:30;1.55;;;1.10;;
15071;SDS011;7635;56.696;13.002;2023-09-19T11:51:59;5.55;;;1.38;;
15071;SDS011;7635;56.696;13.002;2023-09-19T11:54:29;3.20;;;0.80;;
15071;SDS011;7635;56.696;13.002;2023-09-19T11:56:59;0.73;;;0.73;;
15071;SDS011;7635;56.696;13.002;2023-09-19T11:59:26;3.22;;;1.30;;
15071;SDS011;7635;56.696;13.002;2023-09-19T12:01:55;2.28;;;1.23;;
15071;SDS011;7635;56.696;13.002;2023-09-19T12:07:06;0.75;;;0.75;;
15071;SDS011;7635;56.696;13.002;2023-09-19T12:09:38;0.32;;;0.32;;
15071;SDS011;7635;56.696;13.002;2023-09-19T12:12:10;2.50;;;1.30;;
15071;SDS011;7635;56.696;13.002;2023-09-19T12:14:41;0.95;;;0.90;;
15071;SDS011;7635;56.696;13.002;2023-09-19T12:17:14;1.40;;;1.00;;
15071;SDS011;7635;56.696;13.002;2023-09-19T12:19:49;5.25;;;1.30;;
15071;SDS011;7635;56.696;13.002;2023-09-19T12:22:16;0.70;;;0.70;;
15071;SDS011;7635;56.696;13.002;2023-09-19T12:24:44;1.45;;;1.02;;
15071;SDS011;7635;56.696;13.002;2023-09-19T12:27:13;0.80;;;0.80;;
15071;SDS011;7635;56.696;13.002;2023-09-19T12:29:43;1.98;;;0.80;;
15071;SDS011;7635;56.696;13.002;2023-09-19T12:32:11;0.85;;;0.73;;
15071;SDS011;7635;56.696;13.002;2023-09-19T12:34:39;0.93;;;0.93;;
15071;SDS011;7635;56.696;13.002;2023-09-19T12:37:08;0.88;;;0.82;;
15071;SDS011;7635;56.696;13.002;2023-09-19T12:39:42;0.32;;;0.32;;
15071;SDS011;7635;56.696;13.002;2023-09-19T12:42:15;1.17;;;1.08;;
15071;SDS011;7635;56.696;13.002;2023-09-19T12:44:43;0.75;;;0.75;;
15071;SDS011;7635;56.696;13.002;2023-09-19T12:47:12;1.88;;;0.90;;
15071;SDS011;7635;56.696;13.002;2023-09-19T12:52:43;1.08;;;0.70;;
15071;SDS011;7635;56.696;13.002;2023-09-19T12:55:19;1.38;;;1.20;;
15071;SDS011;7635;56.696;13.002;2023-09-19T12:58:00;3.90;;;1.10;;
15071;SDS011;7635;56.696;13.002;2023-09-19T13:00:38;0.90;;;0.90;;
15071;SDS011;7635;56.696;13.002;2023-09-19T13:03:11;0.90;;;0.82;;
15071;SDS011;7635;56.696;13.002;2023-09-19T13:05:47;0.88;;;0.80;;
15071;SDS011;7635;56.696;13.002;2023-09-19T13:08:18;1.55;;;1.08;;
15071;SDS011;7635;56.696;13.002;2023-09-19T13:11:03;1.30;;;0.98;;
15071;SDS011;7635;56.696;13.002;2023-09-19T13:13:37;1.10;;;1.00;;
15071;SDS011;7635;56.696;13.002;2023-09-19T13:16:06;0.93;;;0.90;;
15071;SDS011;7635;56.696;13.002;2023-09-19T13:18:46;1.20;;;1.10;;
15071;SDS011;7635;56.696;13.002;2023-09-19T13:21:16;1.20;;;0.95;;
15071;SDS011;7635;56.696;13.002;2023-09-19T13:23:50;1.42;;;0.90;;
15071;SDS011;7635;56.696;13.002;2023-09-19T13:26:17;1.75;;;1.08;;
15071;SDS011;7635;56.696;13.002;2023-09-19T13:28:46;1.50;;;1.00;;
15071;SDS011;7635;56.696;13.002;2023-09-19T13:31:14;1.92;;;0.98;;
15071;SDS011;7635;56.696;13.002;2023-09-19T13:33:44;0.75;;;0.75;;
15071;SDS011;7635;56.696;13.002;2023-09-19T13:36:11;1.17;;;1.08;;
15071;SDS011;7635;56.696;13.002;2023-09-19T13:38:39;1.98;;;1.05;;
15071;SDS011;7635;56.696;13.002;2023-09-19T13:41:07;3.85;;;0.85;;
15071;SDS011;7635;56.696;13.002;2023-09-19T13:43:35;0.95;;;0.88;;
15071;SDS011;7635;56.696;13.002;2023-09-19T13:46:03;2.38;;;1.30;;
15071;SDS011;7635;56.696;13.002;2023-09-19T13:48:30;0.60;;;0.60;;
15071;SDS011;7635;56.696;13.002;2023-09-19T13:51:00;2.13;;;0.93;;
15071;SDS011;7635;56.696;13.002;2023-09-19T13:53:27;2.95;;;1.23;;
15071;SDS011;7635;56.696;13.002;2023-09-19T13:55:54;1.48;;;1.02;;
15071;SDS011;7635;56.696;13.002;2023-09-19T13:58:21;5.40;;;0.82;;
15071;SDS011;7635;56.696;13.002;2023-09-19T14:00:49;2.17;;;0.88;;
15071;SDS011;7635;56.696;13.002;2023-09-19T14:03:17;0.75;;;0.75;;
15071;SDS011;7635;56.696;13.002;2023-09-19T14:05:45;1.77;;;1.33;;
15071;SDS011;7635;56.696;13.002;2023-09-19T14:08:14;2.55;;;1.42;;
15071;SDS011;7635;56.696;13.002;2023-09-19T14:10:40;4.75;;;1.30;;
15071;SDS011;7635;56.696;13.002;2023-09-19T14:13:07;1.15;;;0.73;;
15071;SDS011;7635;56.696;13.002;2023-09-19T14:15:36;2.28;;;1.15;;
15071;SDS011;7635;56.696;13.002;2023-09-19T14:18:03;5.13;;;1.33;;
15071;SDS011;7635;56.696;13.002;2023-09-19T14:20:31;0.60;;;0.60;;
15071;SDS011;7635;56.696;13.002;2023-09-19T14:22:58;6.18;;;1.67;;
15071;SDS011;7635;56.696;13.002;2023-09-19T14:25:25;1.33;;;1.10;;
15071;SDS011;7635;56.696;13.002;2023-09-19T14:27:52;2.83;;;1.20;;
15071;SDS011;7635;56.696;13.002;2023-09-19T14:30:18;5.90;;;1.17;;
15071;SDS011;7635;56.696;13.002;2023-09-19T14:32:46;0.93;;;0.93;;
15071;SDS011;7635;56.696;13.002;2023-09-19T14:35:12;2.25;;;1.20;;
15071;SDS011;7635;56.696;13.002;2023-09-19T14:37:41;2.83;;;1.30;;
15071;SDS011;7635;56.696;13.002;2023-09-19T14:40:08;1.50;;;1.23;;
15071;SDS011;7635;56.696;13.002;2023-09-19T14:42:35;1.25;;;1.02;;
15071;SDS011;7635;56.696;13.002;2023-09-19T14:45:05;1.63;;;1.35;;
15071;SDS011;7635;56.696;13.002;2023-09-19T14:47:32;1.25;;;1.13;;
15071;SDS011;7635;56.696;13.002;2023-09-19T14:49:59;0.80;;;0.80;;
15071;SDS011;7635;56.696;13.002;2023-09-19T14:52:27;1.65;;;1.23;;
15071;SDS011;7635;56.696;13.002;2023-09-19T14:54:55;4.38;;;1.10;;
15071;SDS011;7635;56.696;13.002;2023-09-19T14:57:22;1.67;;;1.40;;
15071;SDS011;7635;56.696;13.002;2023-09-19T14:59:49;1.13;;;1.02;;
15071;SDS011;7635;56.696;13.002;2023-09-19T15:02:16;2.75;;;1.10;;
15071;SDS011;7635;56.696;13.002;2023-09-19T15:04:44;3.10;;;1.10;;
15071;SDS011;7635;56.696;13.002;2023-09-19T15:07:11;1.30;;;0.98;;
15071;SDS011;7635;56.696;13.002;2023-09-19T15:09:39;1.27;;;1.08;;
15071;SDS011;7635;56.696;13.002;2023-09-19T15:12:08;3.47;;;1.50;;
15071;SDS011;7635;56.696;13.002;2023-09-19T15:14:35;1.83;;;1.17;;
15071;SDS011;7635;56.696;13.002;2023-09-19T15:17:02;3.08;;;1.48;;
15071;SDS011;7635;56.696;13.002;2023-09-19T15:19:30;0.98;;;0.93;;
15071;SDS011;7635;56.696;13.002;2023-09-19T15:21:56;3.15;;;1.35;;
15071;SDS011;7635;56.696;13.002;2023-09-19T15:24:24;2.97;;;1.15;;